createdAt,value
2018-05-13T00:01:33.735Z,6.47
2018-05-13T00:04:00.431Z,6.77
2018-05-13T00:06:27.134Z,7.10
2018-05-13T00:08:53.842Z,7.10
2018-05-13T00:11:20.541Z,7.00
2018-05-13T00:13:47.263Z,7.17
2018-05-13T00:16:13.959Z,6.60
2018-05-13T00:18:40.652Z,6.63
2018-05-13T00:21:07.351Z,7.00
2018-05-13T00:23:34.040Z,7.00
2018-05-13T00:26:00.759Z,6.37
2018-05-13T00:28:27.460Z,7.20
2018-05-13T00:30:54.151Z,6.63
2018-05-13T00:33:20.847Z,7.57
2018-05-13T00:35:47.543Z,7.70
2018-05-13T00:38:14.260Z,7.13
2018-05-13T00:40:40.959Z,6.90
2018-05-13T00:43:07.659Z,6.90
2018-05-13T00:45:34.351Z,7.17
2018-05-13T00:48:01.043Z,7.20
2018-05-13T00:50:27.755Z,7.00
2018-05-13T00:52:54.447Z,7.30
2018-05-13T00:55:21.143Z,7.10
2018-05-13T00:57:47.836Z,7.47
2018-05-13T01:00:14.539Z,7.63
2018-05-13T01:02:41.350Z,7.67
2018-05-13T01:05:07.986Z,7.73
2018-05-13T01:07:34.715Z,7.67
2018-05-13T01:10:01.415Z,7.30
2018-05-13T01:12:28.124Z,7.03
2018-05-13T01:14:54.855Z,7.23
2018-05-13T01:17:21.557Z,6.70
2018-05-13T01:19:48.259Z,7.57
2018-05-13T01:22:14.951Z,6.87
2018-05-13T01:24:41.647Z,7.27
2018-05-13T01:27:08.367Z,6.47
2018-05-13T01:29:35.067Z,6.50
2018-05-13T01:32:01.772Z,6.53
2018-05-13T01:34:28.468Z,6.97
2018-05-13T01:36:55.169Z,7.10
2018-05-13T01:39:21.891Z,6.90
2018-05-13T01:41:48.596Z,7.30
2018-05-13T01:44:15.301Z,7.37
2018-05-13T01:46:42.000Z,7.70
2018-05-13T01:49:08.695Z,6.53
2018-05-13T01:51:35.422Z,7.10
2018-05-13T01:54:02.127Z,8.20
2018-05-13T01:56:28.816Z,7.50
2018-05-13T01:58:55.544Z,7.13
2018-05-13T02:01:22.243Z,7.90
2018-05-13T02:03:48.963Z,7.50
2018-05-13T02:06:15.656Z,7.30
2018-05-13T02:08:42.356Z,7.57
2018-05-13T02:11:09.043Z,7.47
2018-05-13T02:13:35.751Z,7.63
2018-05-13T02:16:02.472Z,7.70
2018-05-13T02:18:29.164Z,7.20
2018-05-13T02:20:55.859Z,8.70
2018-05-13T02:23:22.738Z,7.93
2018-05-13T02:25:49.436Z,7.30
2018-05-13T02:28:16.163Z,7.53
2018-05-13T02:30:42.975Z,7.23
2018-05-13T02:33:09.676Z,7.07
2018-05-13T02:35:36.377Z,7.07
2018-05-13T02:38:03.075Z,7.03
2018-05-13T02:40:29.795Z,8.03
2018-05-13T02:42:56.497Z,7.30
2018-05-13T02:45:23.195Z,7.70
2018-05-13T02:47:49.891Z,7.73
2018-05-13T02:50:16.599Z,7.10
2018-05-13T02:52:43.324Z,7.73
2018-05-13T02:55:10.031Z,7.90
2018-05-13T02:57:36.735Z,7.27
2018-05-13T03:00:03.452Z,7.40
2018-05-13T03:02:30.155Z,7.50
2018-05-13T03:04:56.883Z,7.80
2018-05-13T03:07:23.590Z,6.70
2018-05-13T03:09:50.290Z,6.80
2018-05-13T03:12:17.009Z,6.53
2018-05-13T03:14:43.707Z,6.60
2018-05-13T03:17:10.431Z,7.03
2018-05-13T03:19:37.132Z,7.27
2018-05-13T03:22:03.830Z,7.20
2018-05-13T03:24:30.523Z,6.97
2018-05-13T03:26:57.237Z,7.33
2018-05-13T03:29:23.970Z,7.33
2018-05-13T03:31:50.667Z,6.77
2018-05-13T03:34:17.360Z,7.00
2018-05-13T03:36:44.053Z,7.37
2018-05-13T03:39:10.747Z,7.00
2018-05-13T03:41:37.467Z,6.63
2018-05-13T03:44:04.156Z,6.70
2018-05-13T03:46:30.855Z,6.90
2018-05-13T03:48:57.552Z,7.60
2018-05-13T03:51:24.251Z,6.57
2018-05-13T03:53:50.976Z,6.30
2018-05-13T03:56:17.675Z,6.67
2018-05-13T03:58:44.372Z,6.60
2018-05-13T04:01:11.064Z,6.57
2018-05-13T04:03:37.756Z,6.40
2018-05-13T04:06:04.528Z,6.30
2018-05-13T04:08:46.097Z,6.10
2018-05-13T04:11:18.648Z,6.63
2018-05-13T04:13:51.064Z,6.73
2018-05-13T04:16:17.875Z,6.47
2018-05-13T04:18:44.575Z,6.73
2018-05-13T04:21:11.272Z,6.20
2018-05-13T04:23:37.995Z,6.23
2018-05-13T04:26:04.695Z,6.00
2018-05-13T04:28:31.394Z,6.63
2018-05-13T04:30:58.091Z,6.03
2018-05-13T04:33:24.791Z,6.00
2018-05-13T04:35:51.518Z,6.10
2018-05-13T04:38:18.529Z,6.77
2018-05-13T04:40:45.219Z,7.17
2018-05-13T04:43:11.923Z,6.70
2018-05-13T04:45:38.615Z,6.30
2018-05-13T04:48:05.335Z,6.83
2018-05-13T04:50:32.039Z,6.43
2018-05-13T04:52:58.736Z,5.83
2018-05-13T04:55:25.443Z,6.23
2018-05-13T04:57:52.144Z,6.60
2018-05-13T05:00:18.887Z,6.50
2018-05-13T05:02:45.579Z,5.87
2018-05-13T05:05:12.572Z,6.43
2018-05-13T05:07:39.271Z,6.13
2018-05-13T05:10:05.979Z,6.50
2018-05-13T05:12:32.710Z,6.00
2018-05-13T05:14:59.413Z,5.87
2018-05-13T05:17:26.111Z,5.97
2018-05-13T05:19:52.812Z,5.57
2018-05-13T05:22:19.507Z,5.80
2018-05-13T05:24:46.223Z,6.03
2018-05-13T05:27:12.925Z,5.90
2018-05-13T05:29:39.631Z,5.33
2018-05-13T05:32:06.336Z,5.80
2018-05-13T05:34:33.035Z,5.70
2018-05-13T05:36:59.753Z,5.43
2018-05-13T05:39:26.457Z,5.70
2018-05-13T05:41:53.163Z,5.93
2018-05-13T05:44:19.865Z,5.47
2018-05-13T05:46:46.559Z,5.20
2018-05-13T05:49:13.279Z,5.90
2018-05-13T05:51:39.980Z,5.23
2018-05-13T05:54:06.672Z,4.97
2018-05-13T05:56:33.367Z,4.60
2018-05-13T05:59:00.063Z,4.97
2018-05-13T06:01:26.783Z,4.37
2018-05-13T06:03:53.480Z,4.60
2018-05-13T06:06:20.175Z,4.93
2018-05-13T06:08:46.871Z,4.50
2018-05-13T06:11:13.629Z,4.60
2018-05-13T06:13:40.351Z,4.47
2018-05-13T06:16:07.043Z,4.23
2018-05-13T06:18:33.738Z,4.40
2018-05-13T06:21:00.435Z,4.50
2018-05-13T06:23:27.224Z,4.10
2018-05-13T06:25:53.949Z,4.00
2018-05-13T06:28:20.660Z,4.40
2018-05-13T06:30:47.359Z,4.37
2018-05-13T06:33:14.056Z,4.10
2018-05-13T06:35:40.751Z,4.43
2018-05-13T06:38:07.473Z,3.97
2018-05-13T06:40:34.178Z,4.43
2018-05-13T06:43:00.879Z,4.10
2018-05-13T06:45:27.576Z,4.30
2018-05-13T06:47:54.421Z,3.73
2018-05-13T06:50:21.135Z,3.70
2018-05-13T06:52:47.828Z,4.17
2018-05-13T06:55:14.532Z,3.67
2018-05-13T06:57:41.227Z,4.23
2018-05-13T07:00:07.923Z,3.90
2018-05-13T07:02:34.663Z,4.20
2018-05-13T07:05:01.361Z,4.07
2018-05-13T07:07:28.068Z,3.70
2018-05-13T07:09:54.759Z,4.00
2018-05-13T07:12:21.453Z,4.00
2018-05-13T07:14:48.176Z,4.20
2018-05-13T07:17:14.871Z,3.20
2018-05-13T07:19:41.577Z,3.50
2018-05-13T07:22:08.271Z,3.87
2018-05-13T07:24:34.970Z,4.00
2018-05-13T07:27:01.701Z,3.40
2018-05-13T07:29:28.407Z,3.47
2018-05-13T07:31:55.103Z,3.40
2018-05-13T07:34:21.970Z,3.80
2018-05-13T07:36:48.676Z,3.73
2018-05-13T07:39:15.392Z,3.73
2018-05-13T07:41:42.120Z,3.40
2018-05-13T07:44:08.811Z,3.57
2018-05-13T07:46:35.569Z,3.40
2018-05-13T07:49:02.275Z,3.70
2018-05-13T07:51:28.996Z,3.33
2018-05-13T07:53:55.696Z,3.27
2018-05-13T07:56:22.392Z,3.30
2018-05-13T07:58:49.091Z,3.80
2018-05-13T08:01:15.783Z,3.00
2018-05-13T08:03:42.484Z,3.37
2018-05-13T08:06:09.258Z,3.23
2018-05-13T08:08:35.951Z,3.63
2018-05-13T08:11:02.661Z,3.43
2018-05-13T08:13:29.359Z,3.47
2018-05-13T08:15:56.055Z,3.50
2018-05-13T08:18:22.759Z,3.70
2018-05-13T08:20:49.479Z,3.50
2018-05-13T08:23:16.180Z,3.20
2018-05-13T08:25:42.871Z,3.70
2018-05-13T08:28:09.621Z,3.63
2018-05-13T08:30:36.324Z,3.70
2018-05-13T08:33:03.040Z,3.43
2018-05-13T08:35:29.745Z,3.63
2018-05-13T08:37:56.467Z,3.70
2018-05-13T08:40:23.163Z,3.70
2018-05-13T08:42:49.856Z,3.53
2018-05-13T08:45:16.572Z,3.60
2018-05-13T08:47:43.263Z,3.40
2018-05-13T08:50:09.960Z,3.67
2018-05-13T08:52:36.785Z,3.30
2018-05-13T08:55:03.480Z,3.67
2018-05-13T08:57:30.211Z,3.90
2018-05-13T08:59:56.917Z,3.53
2018-05-13T09:02:23.611Z,3.73
2018-05-13T09:04:50.303Z,3.47
2018-05-13T09:07:16.999Z,3.70
2018-05-13T09:09:43.719Z,3.40
2018-05-13T09:12:10.759Z,3.83
2018-05-13T09:14:37.454Z,3.30
2018-05-13T09:17:04.248Z,3.60
2018-05-13T09:19:30.944Z,3.50
2018-05-13T09:21:57.667Z,3.33
2018-05-13T09:24:24.363Z,3.50
2018-05-13T09:26:51.061Z,3.50
2018-05-13T09:29:17.755Z,3.60
2018-05-13T09:31:44.472Z,3.50
2018-05-13T09:34:11.164Z,3.53
2018-05-13T09:36:37.858Z,3.30
2018-05-13T09:39:05.399Z,3.67
2018-05-13T09:41:32.100Z,3.40
2018-05-13T09:43:58.795Z,3.30
2018-05-13T09:46:25.691Z,3.30
2018-05-13T09:48:52.389Z,3.87
2018-05-13T09:51:19.172Z,3.50
2018-05-13T09:53:45.852Z,3.53
2018-05-13T09:56:12.543Z,3.60
2018-05-13T09:58:39.267Z,3.50
2018-05-13T10:01:06.281Z,3.63
2018-05-13T10:03:33.006Z,3.60
2018-05-13T10:05:59.758Z,3.50
2018-05-13T10:08:26.703Z,3.47
2018-05-13T10:10:53.517Z,4.13
2018-05-13T10:13:20.212Z,3.80
2018-05-13T10:15:46.911Z,3.40
2018-05-13T10:18:13.663Z,3.97
2018-05-13T10:20:40.506Z,3.63
2018-05-13T10:23:07.203Z,3.50
2018-05-13T10:25:34.102Z,3.83
2018-05-13T10:28:00.959Z,3.47
2018-05-13T10:30:27.692Z,3.70
2018-05-13T10:32:54.410Z,3.77
2018-05-13T10:35:21.111Z,3.73
2018-05-13T10:37:47.803Z,3.57
2018-05-13T10:40:14.495Z,3.67
2018-05-13T10:42:41.475Z,3.50
2018-05-13T10:45:08.183Z,3.87
2018-05-13T10:47:35.162Z,3.55
2018-05-13T10:50:01.867Z,3.70
2018-05-13T10:52:28.668Z,3.40
2018-05-13T10:54:55.392Z,3.92
2018-05-13T10:57:22.091Z,3.60
2018-05-13T10:59:48.895Z,3.45
2018-05-13T11:02:15.591Z,3.25
2018-05-13T11:04:42.425Z,3.30
2018-05-13T11:07:09.175Z,3.15
2018-05-13T11:09:36.129Z,3.35
2018-05-13T11:12:02.827Z,3.33
2018-05-13T11:14:29.519Z,3.45
2018-05-13T11:16:56.224Z,2.80
2018-05-13T11:19:22.965Z,3.53
2018-05-13T11:21:49.690Z,3.60
2018-05-13T11:24:16.570Z,3.05
2018-05-13T11:26:43.308Z,3.30
2018-05-13T11:29:09.988Z,3.50
2018-05-13T11:31:36.715Z,3.30
2018-05-13T11:34:03.411Z,3.33
2018-05-13T11:36:30.123Z,3.33
2018-05-13T11:38:56.829Z,3.50
2018-05-13T11:41:23.524Z,3.35
2018-05-13T11:43:50.266Z,3.12
2018-05-13T11:46:16.967Z,3.60
2018-05-13T11:48:43.668Z,3.55
2018-05-13T11:51:10.375Z,3.40
2018-05-13T11:53:37.076Z,3.40
2018-05-13T11:56:03.792Z,3.47
2018-05-13T11:58:30.491Z,3.75
2018-05-13T12:00:57.184Z,3.55
2018-05-13T12:03:23.879Z,3.42
2018-05-13T12:05:50.575Z,3.47
2018-05-13T12:08:17.297Z,3.42
2018-05-13T12:10:43.996Z,3.47
2018-05-13T12:13:10.696Z,3.40
2018-05-13T12:15:37.396Z,3.60
2018-05-13T12:18:04.099Z,3.85
2018-05-13T12:20:30.819Z,3.60
2018-05-13T12:22:57.516Z,3.58
2018-05-13T12:25:24.217Z,3.30
2018-05-13T12:27:50.919Z,3.53
2018-05-13T12:30:17.615Z,3.80
2018-05-13T12:32:44.339Z,3.28
2018-05-13T12:35:11.043Z,3.55
2018-05-13T12:37:37.735Z,3.33
2018-05-13T12:40:04.435Z,3.67
2018-05-13T12:42:31.163Z,3.70
2018-05-13T12:44:57.879Z,3.55
2018-05-13T12:47:24.575Z,3.80
2018-05-13T12:49:52.186Z,3.75
2018-05-13T12:52:18.911Z,3.42
2018-05-13T12:54:45.611Z,3.62
2018-05-13T12:57:12.347Z,3.33
2018-05-13T12:59:39.044Z,3.42
2018-05-13T13:02:05.758Z,3.20
2018-05-13T13:04:32.460Z,3.17
2018-05-13T13:06:59.151Z,3.22
2018-05-13T13:09:25.960Z,3.80
2018-05-13T13:11:52.732Z,3.40
2018-05-13T13:14:19.445Z,3.70
2018-05-13T13:16:46.146Z,3.50
2018-05-13T13:19:12.839Z,3.42
2018-05-13T13:21:39.535Z,3.47
2018-05-13T13:24:06.255Z,3.53
2018-05-13T13:26:33.171Z,3.37
2018-05-13T13:29:00.014Z,3.45
2018-05-13T13:31:26.710Z,3.20
2018-05-13T13:33:53.403Z,3.55
2018-05-13T13:36:20.126Z,3.67
2018-05-13T13:38:46.820Z,3.45
2018-05-13T13:41:13.519Z,3.55
2018-05-13T13:43:40.225Z,3.33
2018-05-13T13:46:06.926Z,3.70
2018-05-13T13:48:33.647Z,4.10
2018-05-13T13:51:00.344Z,3.20
2018-05-13T13:53:27.058Z,3.77
2018-05-13T13:55:53.756Z,3.27
2018-05-13T13:58:20.456Z,3.70
2018-05-13T14:00:47.187Z,3.20
2018-05-13T14:03:13.883Z,3.40
2018-05-13T14:05:40.583Z,3.70
2018-05-13T14:08:07.299Z,3.43
2018-05-13T14:10:34.190Z,3.50
2018-05-13T14:13:00.909Z,3.40
2018-05-13T14:15:27.603Z,3.40
2018-05-13T14:17:54.305Z,3.53
2018-05-13T14:20:21.029Z,3.60
2018-05-13T14:22:47.747Z,3.43
2018-05-13T14:25:14.484Z,3.03
2018-05-13T14:27:41.175Z,3.37
2018-05-13T14:30:07.871Z,3.70
2018-05-13T14:32:34.563Z,3.20
2018-05-13T14:35:01.259Z,3.23
2018-05-13T14:37:27.995Z,3.93
2018-05-13T14:39:54.758Z,3.30
2018-05-13T14:42:21.420Z,3.30
2018-05-13T14:44:48.115Z,3.53
2018-05-13T14:47:14.983Z,3.50
2018-05-13T14:49:41.708Z,3.20
2018-05-13T14:52:08.403Z,3.47
2018-05-13T14:54:35.103Z,3.40
2018-05-13T14:57:01.804Z,3.80
2018-05-13T14:59:28.495Z,3.40
2018-05-13T15:01:55.228Z,3.40
2018-05-13T15:04:21.919Z,3.43
2018-05-13T15:06:48.623Z,3.57
2018-05-13T15:09:15.337Z,3.70
2018-05-13T15:11:42.043Z,3.83
2018-05-13T15:14:08.757Z,3.53
2018-05-13T15:16:35.455Z,3.67
2018-05-13T15:19:02.160Z,4.10
2018-05-13T15:21:28.857Z,3.57
2018-05-13T15:23:55.549Z,3.57
2018-05-13T15:26:22.339Z,3.60
2018-05-13T15:28:48.991Z,3.67
2018-05-13T15:31:15.691Z,3.20
2018-05-13T15:33:42.387Z,3.73
2018-05-13T15:36:09.080Z,3.27
2018-05-13T15:38:35.810Z,3.40
2018-05-13T15:41:02.504Z,3.73
2018-05-13T15:43:29.203Z,3.43
2018-05-13T15:45:55.900Z,3.83
2018-05-13T15:48:22.595Z,3.87
2018-05-13T15:50:49.315Z,3.47
2018-05-13T15:53:16.017Z,5.00
2018-05-13T15:55:42.716Z,3.70
2018-05-13T15:58:09.426Z,3.40
2018-05-13T16:00:36.123Z,3.45
2018-05-13T16:03:02.848Z,3.85
2018-05-13T16:05:29.543Z,3.50
2018-05-13T16:07:56.254Z,3.70
2018-05-13T16:10:22.955Z,3.73
2018-05-13T16:12:49.665Z,3.63
2018-05-13T16:15:16.405Z,3.63
2018-05-13T16:17:43.100Z,3.40
2018-05-13T16:20:09.792Z,3.53
2018-05-13T16:22:36.491Z,3.57
2018-05-13T16:25:03.198Z,3.70
2018-05-13T16:27:29.892Z,3.87
2018-05-13T16:29:56.603Z,3.67
2018-05-13T16:32:23.627Z,3.50
2018-05-13T16:34:50.333Z,3.83
2018-05-13T16:37:24.241Z,4.00
2018-05-13T16:39:50.940Z,3.73
2018-05-13T16:42:17.635Z,3.47
2018-05-13T16:44:44.351Z,3.60
2018-05-13T16:47:11.044Z,3.50
2018-05-13T16:49:37.833Z,3.03
2018-05-13T16:52:04.559Z,3.40
2018-05-13T16:54:31.251Z,3.60
2018-05-13T16:56:57.950Z,3.40
2018-05-13T16:59:24.670Z,3.33
2018-05-13T17:01:51.400Z,3.40
2018-05-13T17:04:18.095Z,3.23
2018-05-13T17:06:44.787Z,3.30
2018-05-13T17:09:11.494Z,3.75
2018-05-13T17:11:38.229Z,3.15
2018-05-13T17:14:05.031Z,3.80
2018-05-13T17:16:31.749Z,3.60
2018-05-13T17:18:58.447Z,3.80
2018-05-13T17:21:25.374Z,3.67
2018-05-13T17:23:52.103Z,3.08
2018-05-13T17:26:18.891Z,3.28
2018-05-13T17:28:45.588Z,3.28
2018-05-13T17:31:12.287Z,3.35
2018-05-13T17:33:39.155Z,3.30
2018-05-13T17:36:05.896Z,3.20
2018-05-13T17:38:32.595Z,4.18
2018-05-13T17:40:59.578Z,3.90
2018-05-13T17:43:26.222Z,3.50
2018-05-13T17:45:52.919Z,3.60
2018-05-13T17:48:19.770Z,3.62
2018-05-13T17:50:46.508Z,3.30
2018-05-13T17:53:13.209Z,3.80
2018-05-13T17:55:39.910Z,3.42
2018-05-13T17:58:06.613Z,4.25
2018-05-13T18:00:33.339Z,3.87
2018-05-13T18:03:00.106Z,3.90
2018-05-13T18:05:26.773Z,3.80
2018-05-13T18:07:53.468Z,3.77
2018-05-13T18:10:20.176Z,3.47
2018-05-13T18:12:46.915Z,3.17
2018-05-13T18:15:13.620Z,3.77
2018-05-13T18:17:40.319Z,4.00
2018-05-13T18:20:07.020Z,3.47
2018-05-13T18:22:33.754Z,3.37
2018-05-13T18:25:00.476Z,3.67
2018-05-13T18:27:27.172Z,3.50
2018-05-13T18:29:53.871Z,3.70
2018-05-13T18:32:20.568Z,3.70
2018-05-13T18:34:47.264Z,4.27
2018-05-13T18:37:14.026Z,3.80
2018-05-13T18:39:40.731Z,3.60
2018-05-13T18:42:07.423Z,3.70
2018-05-13T18:44:34.159Z,3.93
2018-05-13T18:47:00.855Z,3.60
2018-05-13T18:49:27.567Z,3.73
2018-05-13T18:51:54.263Z,3.80
2018-05-13T18:54:20.956Z,3.57
2018-05-13T18:56:47.647Z,3.30
2018-05-13T18:59:14.398Z,3.50
2018-05-13T19:01:41.100Z,3.60
2018-05-13T19:04:07.799Z,3.57
2018-05-13T19:06:34.583Z,3.60
2018-05-13T19:09:01.216Z,3.30
2018-05-13T19:11:27.948Z,3.80
2018-05-13T19:13:54.674Z,3.73
2018-05-13T19:16:21.371Z,3.43
2018-05-13T19:18:48.080Z,3.80
2018-05-13T19:21:14.787Z,3.20
2018-05-13T19:23:41.485Z,3.60
2018-05-13T19:26:08.210Z,3.90
2018-05-13T19:28:35.285Z,3.90
2018-05-13T19:31:01.995Z,3.70
2018-05-13T19:33:28.692Z,3.70
2018-05-13T19:35:55.388Z,4.00
2018-05-13T19:38:22.100Z,4.10
2018-05-13T19:40:48.831Z,3.80
2018-05-13T19:43:15.566Z,3.93
2018-05-13T19:45:42.251Z,4.00
2018-05-13T19:48:08.953Z,4.27
2018-05-13T19:50:35.683Z,4.40
2018-05-13T19:53:02.379Z,4.67
2018-05-13T19:55:29.072Z,4.30
2018-05-13T19:57:55.763Z,4.03
2018-05-13T20:00:22.747Z,3.93
2018-05-13T20:02:49.623Z,4.20
2018-05-13T20:05:16.432Z,3.93
2018-05-13T20:07:43.126Z,4.30
2018-05-13T20:10:09.819Z,4.20
2018-05-13T20:12:36.523Z,4.00
2018-05-13T20:15:03.263Z,4.20
2018-05-13T20:17:29.959Z,4.13
2018-05-13T20:19:56.652Z,3.70
2018-05-13T20:22:23.348Z,4.20
2018-05-13T20:24:50.052Z,4.40
2018-05-13T20:27:16.788Z,4.33
2018-05-13T20:29:43.484Z,4.30
2018-05-13T20:32:10.184Z,4.40
2018-05-13T20:34:36.884Z,4.83
2018-05-13T20:37:03.580Z,4.57
2018-05-13T20:39:30.303Z,4.40
2018-05-13T20:41:56.999Z,4.83
2018-05-13T20:44:23.750Z,4.87
2018-05-13T20:46:50.427Z,4.60
2018-05-13T20:49:17.120Z,4.70
2018-05-13T20:51:44.083Z,4.77
2018-05-13T20:54:10.779Z,4.70
2018-05-13T20:56:37.471Z,4.70
2018-05-13T20:59:04.176Z,4.97
2018-05-13T21:01:30.873Z,4.60
2018-05-13T21:03:57.689Z,4.83
2018-05-13T21:06:24.379Z,4.70
2018-05-13T21:08:51.072Z,4.60
2018-05-13T21:11:17.775Z,5.13
2018-05-13T21:13:44.468Z,4.50
2018-05-13T21:16:11.214Z,4.87
2018-05-13T21:18:37.919Z,4.77
2018-05-13T21:21:04.616Z,4.90
2018-05-13T21:23:31.315Z,5.13
2018-05-13T21:25:58.030Z,4.73
2018-05-13T21:28:24.755Z,4.70
2018-05-13T21:30:51.449Z,4.90
2018-05-13T21:33:18.144Z,5.00
2018-05-13T21:35:44.835Z,4.90
2018-05-13T21:38:11.744Z,5.33
2018-05-13T21:40:38.467Z,5.60
2018-05-13T21:43:05.167Z,5.00
2018-05-13T21:45:31.859Z,4.93
2018-05-13T21:47:58.555Z,5.23
2018-05-13T21:50:25.296Z,5.20
2018-05-13T21:52:52.013Z,4.93
2018-05-13T21:55:18.714Z,4.90
2018-05-13T21:57:45.408Z,4.90
2018-05-13T22:00:12.106Z,5.27
2018-05-13T22:02:38.799Z,5.43
2018-05-13T22:05:05.519Z,5.13
2018-05-13T22:07:32.216Z,5.03
2018-05-13T22:09:58.907Z,4.60
2018-05-13T22:12:25.607Z,5.00
2018-05-13T22:14:52.309Z,4.73
2018-05-13T22:17:19.175Z,5.50
2018-05-13T22:19:45.871Z,5.10
2018-05-13T22:22:12.566Z,5.40
2018-05-13T22:24:39.267Z,4.93
2018-05-13T22:27:05.959Z,5.40
2018-05-13T22:29:32.676Z,5.00
2018-05-13T22:31:59.377Z,5.33
2018-05-13T22:34:26.071Z,5.43
2018-05-13T22:36:52.771Z,5.20
2018-05-13T22:39:19.471Z,4.97
2018-05-13T22:41:46.183Z,5.30
2018-05-13T22:44:12.888Z,5.43
2018-05-13T22:46:39.583Z,4.73
2018-05-13T22:49:06.287Z,5.27
2018-05-13T22:51:32.984Z,5.30
2018-05-13T22:53:59.706Z,5.27
2018-05-13T22:56:26.400Z,4.83
2018-05-13T22:58:53.104Z,5.50
2018-05-13T23:01:19.802Z,5.60
2018-05-13T23:03:46.495Z,5.10
2018-05-13T23:06:13.187Z,5.80
2018-05-13T23:08:40.102Z,5.77
2018-05-13T23:11:06.799Z,5.63
2018-05-13T23:13:33.500Z,5.30
2018-05-13T23:16:00.229Z,5.40
2018-05-13T23:18:26.963Z,6.20
2018-05-13T23:20:53.655Z,5.50
2018-05-13T23:23:20.383Z,5.10
2018-05-13T23:25:47.082Z,5.93
2018-05-13T23:28:13.803Z,5.43
2018-05-13T23:30:40.513Z,5.60
2018-05-13T23:33:07.212Z,5.37
2018-05-13T23:35:33.913Z,5.60
2018-05-13T23:38:00.608Z,5.80
2018-05-13T23:40:27.324Z,5.60
2018-05-13T23:42:54.019Z,5.80
2018-05-13T23:45:20.708Z,5.83
2018-05-13T23:47:47.405Z,5.60
2018-05-13T23:50:14.107Z,5.93
2018-05-13T23:52:40.830Z,5.53
2018-05-13T23:55:07.527Z,6.00
2018-05-13T23:57:34.217Z,6.03
